Shannon Plaza, North Carolina
Current Conditions -  °F | °C
As of 3:56 PM on Monday 24 Nov 2014 (Local Time) from KIGX Reporting Station
Broken Clouds Broken Clouds  
Wind Chill: 71°   Ceiling: 11000
Heat Index: 71°   Visibility: 10mi
Dew Point: 61°   Wind: 6mph
Humidity: 70%   Direction: NA
Pressure: 29.78"   Gusts: NA
Location:  35.955°N, 78.9434°W
Report Text: KIGX 242056Z AUTO VRB05KT 10SM SCT028 SCT033 BKN110 22/16 A2978 RMK AO2 LTG DSNT S SLP081 T02170161 53004 PWINO
Loading
Personal Weather Stations






























Interactive Weather Map New forecast layout! Learn more

10-Day Weather Forecast

Advertisements
Track Severe Weather on mobile